This is the latest recevied weather packets stored in our database for station/object VK2ZAZ-10. If no packets are shown the sender has not sent any weather packets the latest 10 day(s).
| Time | Temp. | Humidity | Pressure | Rain* | Wind** | Luminosity | Snow |
|---|---|---|---|---|---|---|---|
| 1777630449 | 21.67° C | 59% | 1029.2 hPa | - | - | - | - |
| 1777628648 | 21.67° C | 59% | 1029.1 hPa | - | - | - | - |
| 1777626851 | 21.67° C | 58% | 1029 hPa | - | - | - | - |
| 1777625050 | 22.22° C | 58% | 1029 hPa | - | - | - | - |
| 1777623251 | 22.22° C | 58% | 1028.8 hPa | - | - | - | - |
| 1777621448 | 22.78° C | 57% | 1028.8 hPa | - | - | - | - |
| 1777619648 | 22.78° C | 57% | 1028.6 hPa | - | - | - | - |
| 1777617850 | 22.78° C | 55% | 1028.4 hPa | - | - | - | - |
| 1777616047 | 23.33° C | 55% | 1028.5 hPa | - | - | - | - |
| 1777614250 | 23.33° C | 55% | 1028.5 hPa | - | - | - | - |
| 1777612447 | 23.33° C | 54% | 1028.5 hPa | - | - | - | - |
| 1777610650 | 23.33° C | 54% | 1028.5 hPa | - | - | - | - |
| 1777608850 | 23.33° C | 54% | 1028.6 hPa | - | - | - | - |
| 1777607050 | 23.33° C | 54% | 1028.8 hPa | - | - | - | - |
| 1777605250 | 22.78° C | 54% | 1029 hPa | - | - | - | - |
| 1777603447 | 22.78° C | 54% | 1029.5 hPa | - | - | - | - |
| 1777601649 | 22.22° C | 55% | 1029.9 hPa | - | - | - | - |
| 1777599848 | 21.67° C | 55% | 1030.6 hPa | - | - | - | - |
| 1777598046 | 21.67° C | 55% | 1031.1 hPa | - | - | - | - |
| 1777596246 | 21.11° C | 55% | 1031.5 hPa | - | - | - | - |
| 1777594448 | 21.11° C | 55% | 1031.7 hPa | - | - | - | - |
| 1777592650 | 20.56° C | 56% | 1031.9 hPa | - | - | - | - |
| 1777590846 | 20° C | 58% | 1032.2 hPa | - | - | - | - |
| 1777589056 | 18.33° C | 61% | 1032.4 hPa | - | - | - | - |
| 1777587247 | 17.78° C | 61% | 1032.4 hPa | - | - | - | - |
* Rain since midnight (hover to see other rain measurements)
** Current wind speed in m/s (hover to see current wind gust speed)